aviador You're here:

YSDU Decoded Metar

DUBBO in AUSTRALIA
Report Time2017-09-23 18:00:00
UTC Time2017-09-23 18:22:51
Flight Rules vfr VFR
Wind220° at 16 kt
W.Decomp.*RWY 23: 15.0 kt HW 5.5 kt LCW
RWY 29: 2.8 kt HW 15.8 kt LCW
W.Rank220° ranks 14
Current wind is above 220° avg. (8.5)
Visibility9999 m
Phenomena:N/A
Clouds:N/A
Expected CloudBase > 7,600 ft AGL from Temp-Dew spread
CeilingNone
Temp22°C (ISA +9)
Dew Point03°C (29% RH)
AAT14.8°C
QNH1004 hPa
Density Alt2,336 ft
Elevation902 ft
Report Wrong Elevation
Raw Report
YSDU 231800Z AUTO 22016KT 9999 // NCD 22/03 Q1004=

Extra information for YSDU:More info

Metar Taf Metar & Taf Last 4 Metars F.Rules Stats Wind Profile Meteogram Temp Stats Airport Information Weather charts Add Link Nearby VenuesMetar ALERT Operation Metar Decoded Social comments